Bow Victor — LAHC2 — position and weather

sailwx.info

Track history (hours):
 
Tides and Currents Weather Stations Pressure Air Temp Water Temp Dewpoint Dewpoint Depression Visibility Wind Speed Wind Dir Waves Ship Positions

Bow Victor

Last reported at 2015-Oct-17 18:27 UTC. Time now 2016-Apr-29 23:29 UTC.
Position S 28°50' E 032°12'.
Warning: this ship's position is months out of date.

Length 183 m; draft 6.6 m.

Type: Tanker. MMSI: 257873000.

Date/timePositionNaut miles runAvg speedWind from/ knotsBaromVisibWave heightAir tempDewpointWater temp
2015-Oct-17 18:27S 28°50' E 032°12'  
2015-Oct-12 14:14S 28°51' E 032°13'3 4.3
2015-Oct-12 13:33S 28°50' E 032°10'1 1.3
2015-Oct-12 12:33S 28°51' E 032°08'2 1.6
2015-Oct-12 11:28S 28°52' E 032°09'2 2.3
2015-Oct-12 10:31S 28°54' E 032°08'0 0.0
2015-Oct-10 14:29S 28°54' E 032°08'0 0.0
2015-Oct-10 13:23S 28°54' E 032°08'0 0.1
2015-Oct-10 12:32S 28°54' E 032°08'0 0.0
2015-Oct-10 11:32S 28°54' E 032°08'0 0.0
2015-Oct-10 10:23S 28°54' E 032°08'0 0.0
2015-Oct-08 23:08S 28°54' E 032°08'0 0.0
2015-Oct-08 08:14S 28°54' E 032°08'0 0.0
2015-Oct-08 07:32S 28°54' E 032°08'0 0.0
2015-Oct-08 06:29S 28°54' E 032°08'0 0.0
2015-Oct-08 05:32S 28°54' E 032°08'0 0.0
2015-Oct-08 04:32S 28°54' E 032°08'0 0.0
2015-Oct-08 03:20S 28°54' E 032°08'0 0.0
2015-Oct-08 01:32S 28°54' E 032°08'0 0.0
2015-Oct-07 23:26S 28°54' E 032°08'0 0.0
2015-Oct-07 22:32S 28°54' E 032°08'0 0.1
2015-Oct-07 21:29S 28°54' E 032°08'0 0.1
2015-Oct-07 20:20S 28°54' E 032°08'0 0.1
2015-Oct-07 19:32S 28°54' E 032°08'  
Track history (hours):
 
Tides and Currents Weather Stations Pressure Air Temp Water Temp Dewpoint Dewpoint Depression Visibility Wind Speed Wind Dir Waves Ship Positions

Bow Victor

Last reported at 2015-Oct-17 18:27 UTC. Time now 2016-Apr-29 23:29 UTC.
Position S 28°50' E 032°12'.
Warning: this ship's position is months out of date.

Length 183 m; draft 6.6 m.

Type: Tanker. MMSI: 257873000.

Date/timePositionNaut miles runAvg speedWind from/ knotsBaromVisibWave heightAir tempDewpointWater temp
2015-Oct-17 18:27S 28°50' E 032°12'  
2015-Oct-12 14:14S 28°51' E 032°13'3 4.3
2015-Oct-12 13:33S 28°50' E 032°10'1 1.3
2015-Oct-12 12:33S 28°51' E 032°08'2 1.6
2015-Oct-12 11:28S 28°52' E 032°09'2 2.3
2015-Oct-12 10:31S 28°54' E 032°08'0 0.0
2015-Oct-10 14:29S 28°54' E 032°08'0 0.0
2015-Oct-10 13:23S 28°54' E 032°08'0 0.1
2015-Oct-10 12:32S 28°54' E 032°08'0 0.0
2015-Oct-10 11:32S 28°54' E 032°08'0 0.0
2015-Oct-10 10:23S 28°54' E 032°08'0 0.0
2015-Oct-08 23:08S 28°54' E 032°08'0 0.0
2015-Oct-08 08:14S 28°54' E 032°08'0 0.0
2015-Oct-08 07:32S 28°54' E 032°08'0 0.0
2015-Oct-08 06:29S 28°54' E 032°08'0 0.0
2015-Oct-08 05:32S 28°54' E 032°08'0 0.0
2015-Oct-08 04:32S 28°54' E 032°08'0 0.0
2015-Oct-08 03:20S 28°54' E 032°08'0 0.0
2015-Oct-08 01:32S 28°54' E 032°08'0 0.0
2015-Oct-07 23:26S 28°54' E 032°08'0 0.0
2015-Oct-07 22:32S 28°54' E 032°08'0 0.1
2015-Oct-07 21:29S 28°54' E 032°08'0 0.1
2015-Oct-07 20:20S 28°54' E 032°08'0 0.1
2015-Oct-07 19:32S 28°54' E 032°08'  

Dump ship's entire track history